createdAt,value
2023-03-20T00:04:34.609Z,11.9
2023-03-20T00:19:44.999Z,11.7
2023-03-20T00:34:54.699Z,11.5
2023-03-20T00:50:03.911Z,11.4
2023-03-20T01:05:13.497Z,11.4
2023-03-20T01:20:24.979Z,11.3
2023-03-20T01:35:34.841Z,11.1
2023-03-20T01:50:45.892Z,11.1
2023-03-20T02:05:55.249Z,11
2023-03-20T02:21:04.721Z,11
2023-03-20T02:36:14.086Z,10.9
2023-03-20T02:51:23.564Z,10.8
2023-03-20T03:06:33.232Z,10.7
2023-03-20T03:21:42.646Z,10.5
2023-03-20T03:36:51.933Z,10.1
2023-03-20T03:52:01.241Z,9.9
2023-03-20T04:07:10.996Z,9.9
2023-03-20T04:22:21.542Z,9.7
2023-03-20T04:37:31.008Z,9.5
2023-03-20T04:52:40.603Z,9.5
2023-03-20T05:07:50.486Z,9.6
2023-03-20T05:23:00.291Z,9.6
2023-03-20T05:38:09.999Z,9.6
2023-03-20T05:53:19.799Z,9.6
2023-03-20T06:08:29.399Z,9.7
2023-03-20T06:23:39.024Z,9.7
2023-03-20T06:38:48.465Z,9.7
2023-03-20T06:53:57.837Z,9.7
2023-03-20T07:09:07.538Z,9.7
2023-03-20T07:24:17.687Z,9.8
2023-03-20T07:39:27.013Z,9.8
2023-03-20T07:54:36.500Z,9.8
2023-03-20T08:09:45.690Z,9.8
2023-03-20T08:24:55.681Z,9.8
2023-03-20T08:40:05.024Z,9.9
2023-03-20T08:55:14.875Z,9.9
2023-03-20T09:10:26.339Z,9.9
2023-03-20T09:25:36.235Z,10
2023-03-20T09:40:47.516Z,10.1
2023-03-20T09:55:58.083Z,10.3
2023-03-20T10:11:08.068Z,10.3
2023-03-20T10:26:17.985Z,10.4
2023-03-20T10:41:27.179Z,10.5
2023-03-20T10:56:37.192Z,10.8
2023-03-20T11:11:47.181Z,11
2023-03-20T11:26:56.993Z,11.1
2023-03-20T11:42:06.809Z,11.6
2023-03-20T11:57:16.977Z,11.8
2023-03-20T12:12:27.087Z,11.8
2023-03-20T12:27:36.518Z,11.6
2023-03-20T12:42:46.364Z,11.6
2023-03-20T12:57:56.013Z,11.8
2023-03-20T13:13:05.679Z,11.7
2023-03-20T13:28:14.905Z,11.8
2023-03-20T13:43:27.905Z,11.9
2023-03-20T13:58:37.616Z,11.9
2023-03-20T14:13:47.255Z,12.1
2023-03-20T14:28:56.935Z,11.6
2023-03-20T14:44:05.901Z,11.2
2023-03-20T14:59:15.418Z,11.1
2023-03-20T15:14:27.748Z,10.9
2023-03-20T15:29:37.810Z,10.8
2023-03-20T15:44:47.618Z,10.8
2023-03-20T15:59:58.148Z,10.7
2023-03-20T16:15:07.719Z,10.6
2023-03-20T16:30:17.174Z,10.4
2023-03-20T16:45:27.693Z,10.4
2023-03-20T17:00:37.430Z,10.3
2023-03-20T17:15:48.854Z,10.2
2023-03-20T17:30:57.928Z,10.1
2023-03-20T17:46:07.256Z,10.1
2023-03-20T18:01:16.994Z,10
2023-03-20T18:16:27.425Z,9.9
2023-03-20T18:31:37.201Z,9.9
2023-03-20T18:46:53.040Z,9.7
2023-03-20T19:02:02.333Z,9.6
2023-03-20T19:17:12.316Z,9.4
2023-03-20T19:32:21.865Z,9.4
2023-03-20T19:47:31.642Z,9.3
2023-03-20T20:02:42.450Z,9.3
2023-03-20T20:17:53.281Z,9.2
2023-03-20T20:33:05.258Z,9.2
2023-03-20T20:48:18.990Z,9
2023-03-20T21:03:27.201Z,8.9
2023-03-20T21:18:36.627Z,8.8
2023-03-20T21:33:46.805Z,8.8
2023-03-20T21:49:43.593Z,8.6
2023-03-20T22:26:29.204Z,8.7
2023-03-20T23:00:13.944Z,8.6
2023-03-20T23:15:23.217Z,8.7
2023-03-20T23:30:41.899Z,8.7
2023-03-20T23:46:21.505Z,8.8
